sensor_id;sensor_type;location;lat;lon;timestamp;P1;durP1;ratioP1;P2;durP2;ratioP2
10550;SDS011;5324;50.684;3.862;2023-03-12T00:00:22;3.13;;;2.40;;
10550;SDS011;5324;50.684;3.862;2023-03-12T00:02:48;3.03;;;2.37;;
10550;SDS011;5324;50.684;3.862;2023-03-12T00:05:14;5.00;;;2.83;;
10550;SDS011;5324;50.684;3.862;2023-03-12T00:07:40;4.53;;;2.50;;
10550;SDS011;5324;50.684;3.862;2023-03-12T00:10:06;3.10;;;2.47;;
10550;SDS011;5324;50.684;3.862;2023-03-12T00:12:32;3.27;;;2.50;;
10550;SDS011;5324;50.684;3.862;2023-03-12T00:14:59;5.53;;;2.43;;
10550;SDS011;5324;50.684;3.862;2023-03-12T00:17:25;5.17;;;2.50;;
10550;SDS011;5324;50.684;3.862;2023-03-12T00:19:51;4.47;;;2.23;;
10550;SDS011;5324;50.684;3.862;2023-03-12T00:22:18;4.67;;;2.53;;
10550;SDS011;5324;50.684;3.862;2023-03-12T00:24:55;2.30;;;2.10;;
10550;SDS011;5324;50.684;3.862;2023-03-12T00:27:23;5.83;;;2.23;;
10550;SDS011;5324;50.684;3.862;2023-03-12T00:29:50;4.30;;;2.40;;
10550;SDS011;5324;50.684;3.862;2023-03-12T00:32:16;5.70;;;2.80;;
10550;SDS011;5324;50.684;3.862;2023-03-12T00:34:42;4.23;;;2.53;;
10550;SDS011;5324;50.684;3.862;2023-03-12T00:37:08;4.57;;;2.50;;
10550;SDS011;5324;50.684;3.862;2023-03-12T00:39:34;4.20;;;2.07;;
10550;SDS011;5324;50.684;3.862;2023-03-12T00:42:00;4.23;;;2.70;;
10550;SDS011;5324;50.684;3.862;2023-03-12T00:44:26;3.97;;;2.70;;
10550;SDS011;5324;50.684;3.862;2023-03-12T00:46:53;5.47;;;2.63;;
10550;SDS011;5324;50.684;3.862;2023-03-12T00:49:19;4.83;;;2.77;;
10550;SDS011;5324;50.684;3.862;2023-03-12T00:51:45;6.93;;;3.10;;
10550;SDS011;5324;50.684;3.862;2023-03-12T00:54:11;7.50;;;3.10;;
10550;SDS011;5324;50.684;3.862;2023-03-12T00:56:37;4.30;;;2.93;;
10550;SDS011;5324;50.684;3.862;2023-03-12T00:59:03;5.77;;;3.67;;
10550;SDS011;5324;50.684;3.862;2023-03-12T01:01:29;4.23;;;2.73;;
10550;SDS011;5324;50.684;3.862;2023-03-12T01:03:55;6.13;;;2.53;;
10550;SDS011;5324;50.684;3.862;2023-03-12T01:06:22;4.60;;;2.60;;
10550;SDS011;5324;50.684;3.862;2023-03-12T01:08:48;7.30;;;2.60;;
10550;SDS011;5324;50.684;3.862;2023-03-12T01:11:15;3.80;;;2.47;;
10550;SDS011;5324;50.684;3.862;2023-03-12T01:13:42;4.93;;;2.90;;
10550;SDS011;5324;50.684;3.862;2023-03-12T01:16:08;3.50;;;2.83;;
10550;SDS011;5324;50.684;3.862;2023-03-12T01:18:34;6.23;;;3.07;;
10550;SDS011;5324;50.684;3.862;2023-03-12T01:21:00;3.67;;;2.70;;
10550;SDS011;5324;50.684;3.862;2023-03-12T01:23:27;4.43;;;3.00;;
10550;SDS011;5324;50.684;3.862;2023-03-12T01:25:53;4.53;;;3.00;;
10550;SDS011;5324;50.684;3.862;2023-03-12T01:28:22;7.10;;;3.37;;
10550;SDS011;5324;50.684;3.862;2023-03-12T01:30:48;3.17;;;2.80;;
10550;SDS011;5324;50.684;3.862;2023-03-12T01:33:14;6.50;;;2.77;;
10550;SDS011;5324;50.684;3.862;2023-03-12T01:35:41;5.37;;;2.33;;
10550;SDS011;5324;50.684;3.862;2023-03-12T01:38:12;6.03;;;2.80;;
10550;SDS011;5324;50.684;3.862;2023-03-12T01:40:38;3.77;;;2.57;;
10550;SDS011;5324;50.684;3.862;2023-03-12T01:43:24;4.90;;;2.77;;
10550;SDS011;5324;50.684;3.862;2023-03-12T01:46:05;4.50;;;2.90;;
10550;SDS011;5324;50.684;3.862;2023-03-12T01:48:52;4.33;;;2.90;;
10550;SDS011;5324;50.684;3.862;2023-03-12T01:51:19;4.70;;;2.90;;
10550;SDS011;5324;50.684;3.862;2023-03-12T01:53:47;3.87;;;2.90;;
10550;SDS011;5324;50.684;3.862;2023-03-12T01:56:15;4.40;;;3.20;;
10550;SDS011;5324;50.684;3.862;2023-03-12T01:58:44;3.57;;;2.67;;
10550;SDS011;5324;50.684;3.862;2023-03-12T02:01:11;6.13;;;3.43;;
10550;SDS011;5324;50.684;3.862;2023-03-12T02:03:37;4.93;;;3.17;;
10550;SDS011;5324;50.684;3.862;2023-03-12T02:06:07;7.13;;;2.87;;
10550;SDS011;5324;50.684;3.862;2023-03-12T02:08:37;6.73;;;3.33;;
10550;SDS011;5324;50.684;3.862;2023-03-12T02:11:04;4.43;;;2.97;;
10550;SDS011;5324;50.684;3.862;2023-03-12T02:13:30;3.60;;;2.53;;
10550;SDS011;5324;50.684;3.862;2023-03-12T02:15:56;5.73;;;2.70;;
10550;SDS011;5324;50.684;3.862;2023-03-12T02:18:22;4.00;;;2.87;;
10550;SDS011;5324;50.684;3.862;2023-03-12T02:20:51;5.70;;;3.03;;
10550;SDS011;5324;50.684;3.862;2023-03-12T02:23:31;3.40;;;2.60;;
10550;SDS011;5324;50.684;3.862;2023-03-12T02:25:59;2.87;;;2.13;;
10550;SDS011;5324;50.684;3.862;2023-03-12T02:28:27;3.77;;;2.57;;
10550;SDS011;5324;50.684;3.862;2023-03-12T02:30:57;4.07;;;2.27;;
10550;SDS011;5324;50.684;3.862;2023-03-12T02:33:24;4.33;;;2.57;;
10550;SDS011;5324;50.684;3.862;2023-03-12T02:35:51;5.63;;;2.70;;
10550;SDS011;5324;50.684;3.862;2023-03-12T02:40:53;4.77;;;2.57;;
10550;SDS011;5324;50.684;3.862;2023-03-12T02:43:20;3.57;;;2.63;;
10550;SDS011;5324;50.684;3.862;2023-03-12T02:45:47;4.33;;;2.40;;
10550;SDS011;5324;50.684;3.862;2023-03-12T02:48:13;4.10;;;2.37;;
10550;SDS011;5324;50.684;3.862;2023-03-12T02:50:39;3.50;;;2.27;;
10550;SDS011;5324;50.684;3.862;2023-03-12T02:53:05;4.27;;;2.53;;
10550;SDS011;5324;50.684;3.862;2023-03-12T02:55:31;4.37;;;2.63;;
10550;SDS011;5324;50.684;3.862;2023-03-12T02:57:57;2.93;;;2.63;;
10550;SDS011;5324;50.684;3.862;2023-03-12T03:00:23;3.70;;;2.50;;
10550;SDS011;5324;50.684;3.862;2023-03-12T03:02:49;4.93;;;3.00;;
10550;SDS011;5324;50.684;3.862;2023-03-12T03:05:15;4.03;;;2.80;;
10550;SDS011;5324;50.684;3.862;2023-03-12T03:07:42;4.33;;;2.70;;
10550;SDS011;5324;50.684;3.862;2023-03-12T03:10:08;7.27;;;2.70;;
10550;SDS011;5324;50.684;3.862;2023-03-12T03:12:34;5.37;;;2.83;;
10550;SDS011;5324;50.684;3.862;2023-03-12T03:15:01;5.87;;;3.00;;
10550;SDS011;5324;50.684;3.862;2023-03-12T03:17:27;5.73;;;2.80;;
10550;SDS011;5324;50.684;3.862;2023-03-12T03:19:54;5.50;;;2.73;;
10550;SDS011;5324;50.684;3.862;2023-03-12T03:22:20;4.20;;;3.10;;
10550;SDS011;5324;50.684;3.862;2023-03-12T03:24:46;3.43;;;2.70;;
10550;SDS011;5324;50.684;3.862;2023-03-12T03:27:12;4.00;;;2.90;;
10550;SDS011;5324;50.684;3.862;2023-03-12T03:29:38;3.67;;;2.80;;
10550;SDS011;5324;50.684;3.862;2023-03-12T03:32:05;3.47;;;2.73;;
10550;SDS011;5324;50.684;3.862;2023-03-12T03:34:31;5.73;;;3.00;;
10550;SDS011;5324;50.684;3.862;2023-03-12T03:36:57;3.93;;;2.90;;
10550;SDS011;5324;50.684;3.862;2023-03-12T03:39:23;2.70;;;2.43;;
10550;SDS011;5324;50.684;3.862;2023-03-12T03:41:50;3.87;;;3.27;;
10550;SDS011;5324;50.684;3.862;2023-03-12T03:44:16;7.93;;;3.73;;
10550;SDS011;5324;50.684;3.862;2023-03-12T03:46:42;4.40;;;3.43;;
10550;SDS011;5324;50.684;3.862;2023-03-12T03:49:08;5.90;;;3.07;;
10550;SDS011;5324;50.684;3.862;2023-03-12T03:51:34;3.97;;;2.60;;
10550;SDS011;5324;50.684;3.862;2023-03-12T03:54:01;4.77;;;3.50;;
10550;SDS011;5324;50.684;3.862;2023-03-12T03:56:27;5.90;;;3.53;;
10550;SDS011;5324;50.684;3.862;2023-03-12T03:58:53;3.63;;;3.23;;
10550;SDS011;5324;50.684;3.862;2023-03-12T04:01:19;6.50;;;3.40;;
10550;SDS011;5324;50.684;3.862;2023-03-12T04:03:45;3.90;;;3.50;;
10550;SDS011;5324;50.684;3.862;2023-03-12T04:06:11;5.97;;;3.33;;
10550;SDS011;5324;50.684;3.862;2023-03-12T04:08:37;5.57;;;3.63;;
10550;SDS011;5324;50.684;3.862;2023-03-12T04:11:11;10.70;;;4.40;;
10550;SDS011;5324;50.684;3.862;2023-03-12T04:13:38;6.53;;;4.07;;
10550;SDS011;5324;50.684;3.862;2023-03-12T04:16:05;5.73;;;4.30;;
10550;SDS011;5324;50.684;3.862;2023-03-12T04:18:31;3.77;;;3.43;;
10550;SDS011;5324;50.684;3.862;2023-03-12T04:20:57;5.60;;;3.93;;
10550;SDS011;5324;50.684;3.862;2023-03-12T04:23:24;5.27;;;3.60;;
10550;SDS011;5324;50.684;3.862;2023-03-12T04:25:50;5.57;;;4.07;;
10550;SDS011;5324;50.684;3.862;2023-03-12T04:28:16;5.77;;;4.03;;
10550;SDS011;5324;50.684;3.862;2023-03-12T04:30:42;6.30;;;3.87;;
10550;SDS011;5324;50.684;3.862;2023-03-12T04:33:09;5.17;;;3.90;;
10550;SDS011;5324;50.684;3.862;2023-03-12T04:35:35;4.50;;;3.87;;
10550;SDS011;5324;50.684;3.862;2023-03-12T04:38:01;6.40;;;3.90;;
10550;SDS011;5324;50.684;3.862;2023-03-12T04:40:27;4.97;;;3.47;;
10550;SDS011;5324;50.684;3.862;2023-03-12T04:42:53;4.90;;;4.10;;
10550;SDS011;5324;50.684;3.862;2023-03-12T04:45:19;4.83;;;4.33;;
10550;SDS011;5324;50.684;3.862;2023-03-12T04:47:45;5.70;;;4.50;;
10550;SDS011;5324;50.684;3.862;2023-03-12T04:50:11;5.40;;;4.20;;
10550;SDS011;5324;50.684;3.862;2023-03-12T04:52:37;5.53;;;4.50;;
10550;SDS011;5324;50.684;3.862;2023-03-12T04:55:04;6.83;;;4.37;;
10550;SDS011;5324;50.684;3.862;2023-03-12T04:57:30;5.87;;;4.43;;
10550;SDS011;5324;50.684;3.862;2023-03-12T04:59:56;6.03;;;4.33;;
10550;SDS011;5324;50.684;3.862;2023-03-12T05:02:22;4.80;;;4.20;;
10550;SDS011;5324;50.684;3.862;2023-03-12T05:04:48;5.70;;;4.63;;
10550;SDS011;5324;50.684;3.862;2023-03-12T05:07:14;5.40;;;4.30;;
10550;SDS011;5324;50.684;3.862;2023-03-12T05:09:40;6.47;;;4.50;;
10550;SDS011;5324;50.684;3.862;2023-03-12T05:12:08;5.17;;;4.67;;
10550;SDS011;5324;50.684;3.862;2023-03-12T05:14:34;6.70;;;4.10;;
10550;SDS011;5324;50.684;3.862;2023-03-12T05:17:03;5.50;;;4.10;;
10550;SDS011;5324;50.684;3.862;2023-03-12T05:19:30;6.57;;;4.37;;
10550;SDS011;5324;50.684;3.862;2023-03-12T05:21:56;5.77;;;4.77;;
10550;SDS011;5324;50.684;3.862;2023-03-12T05:24:22;5.50;;;5.00;;
10550;SDS011;5324;50.684;3.862;2023-03-12T05:26:48;5.60;;;4.90;;
10550;SDS011;5324;50.684;3.862;2023-03-12T05:29:14;5.30;;;4.63;;
10550;SDS011;5324;50.684;3.862;2023-03-12T05:31:40;6.47;;;5.40;;
10550;SDS011;5324;50.684;3.862;2023-03-12T05:34:06;6.03;;;4.93;;
10550;SDS011;5324;50.684;3.862;2023-03-12T05:36:33;7.17;;;5.20;;
10550;SDS011;5324;50.684;3.862;2023-03-12T05:38:58;6.23;;;4.90;;
10550;SDS011;5324;50.684;3.862;2023-03-12T05:41:26;6.17;;;5.57;;
10550;SDS011;5324;50.684;3.862;2023-03-12T05:43:53;7.00;;;4.93;;
10550;SDS011;5324;50.684;3.862;2023-03-12T05:46:20;6.77;;;5.37;;
10550;SDS011;5324;50.684;3.862;2023-03-12T05:48:46;7.97;;;6.43;;
10550;SDS011;5324;50.684;3.862;2023-03-12T05:51:12;9.60;;;6.13;;
10550;SDS011;5324;50.684;3.862;2023-03-12T05:53:38;8.30;;;6.13;;
10550;SDS011;5324;50.684;3.862;2023-03-12T05:56:05;7.37;;;5.70;;
10550;SDS011;5324;50.684;3.862;2023-03-12T05:58:32;8.83;;;6.20;;
10550;SDS011;5324;50.684;3.862;2023-03-12T06:01:00;8.97;;;5.90;;
10550;SDS011;5324;50.684;3.862;2023-03-12T06:03:26;8.80;;;6.30;;
10550;SDS011;5324;50.684;3.862;2023-03-12T06:05:52;7.60;;;6.00;;
10550;SDS011;5324;50.684;3.862;2023-03-12T06:08:24;9.00;;;6.40;;
10550;SDS011;5324;50.684;3.862;2023-03-12T06:10:50;8.03;;;6.70;;
10550;SDS011;5324;50.684;3.862;2023-03-12T06:13:18;6.97;;;5.83;;
10550;SDS011;5324;50.684;3.862;2023-03-12T06:15:44;8.03;;;6.43;;
10550;SDS011;5324;50.684;3.862;2023-03-12T06:18:10;8.07;;;6.47;;
10550;SDS011;5324;50.684;3.862;2023-03-12T06:20:36;9.63;;;6.20;;
10550;SDS011;5324;50.684;3.862;2023-03-12T06:23:02;6.83;;;6.23;;
10550;SDS011;5324;50.684;3.862;2023-03-12T06:25:28;8.47;;;6.50;;
10550;SDS011;5324;50.684;3.862;2023-03-12T06:27:54;8.87;;;6.70;;
10550;SDS011;5324;50.684;3.862;2023-03-12T06:30:20;8.07;;;6.23;;
10550;SDS011;5324;50.684;3.862;2023-03-12T06:32:46;8.50;;;6.67;;
10550;SDS011;5324;50.684;3.862;2023-03-12T06:35:12;9.03;;;6.70;;
10550;SDS011;5324;50.684;3.862;2023-03-12T06:37:38;11.47;;;6.57;;
10550;SDS011;5324;50.684;3.862;2023-03-12T06:40:05;8.80;;;7.03;;
10550;SDS011;5324;50.684;3.862;2023-03-12T06:42:33;10.23;;;6.97;;
10550;SDS011;5324;50.684;3.862;2023-03-12T06:44:59;9.23;;;7.07;;
10550;SDS011;5324;50.684;3.862;2023-03-12T06:47:26;13.13;;;7.00;;
10550;SDS011;5324;50.684;3.862;2023-03-12T06:49:52;10.17;;;6.70;;
10550;SDS011;5324;50.684;3.862;2023-03-12T06:52:18;10.67;;;6.87;;
10550;SDS011;5324;50.684;3.862;2023-03-12T06:54:44;9.37;;;7.00;;
10550;SDS011;5324;50.684;3.862;2023-03-12T06:57:10;8.27;;;6.50;;
10550;SDS011;5324;50.684;3.862;2023-03-12T06:59:36;8.57;;;6.57;;
10550;SDS011;5324;50.684;3.862;2023-03-12T07:02:02;9.83;;;5.77;;
10550;SDS011;5324;50.684;3.862;2023-03-12T07:04:28;9.83;;;6.13;;
10550;SDS011;5324;50.684;3.862;2023-03-12T07:06:54;13.73;;;6.37;;
10550;SDS011;5324;50.684;3.862;2023-03-12T07:09:20;16.83;;;7.13;;
10550;SDS011;5324;50.684;3.862;2023-03-12T07:11:46;16.00;;;6.70;;
10550;SDS011;5324;50.684;3.862;2023-03-12T07:14:12;16.17;;;6.57;;
10550;SDS011;5324;50.684;3.862;2023-03-12T07:16:38;17.37;;;6.67;;
10550;SDS011;5324;50.684;3.862;2023-03-12T07:19:04;15.87;;;6.33;;
10550;SDS011;5324;50.684;3.862;2023-03-12T07:21:30;15.37;;;5.63;;
10550;SDS011;5324;50.684;3.862;2023-03-12T07:23:56;17.03;;;6.77;;
10550;SDS011;5324;50.684;3.862;2023-03-12T07:26:22;19.33;;;7.07;;
10550;SDS011;5324;50.684;3.862;2023-03-12T07:28:48;20.40;;;7.67;;
10550;SDS011;5324;50.684;3.862;2023-03-12T07:31:14;21.03;;;7.47;;
10550;SDS011;5324;50.684;3.862;2023-03-12T07:33:40;22.37;;;7.90;;
10550;SDS011;5324;50.684;3.862;2023-03-12T07:36:06;18.97;;;7.20;;
10550;SDS011;5324;50.684;3.862;2023-03-12T07:38:32;20.43;;;6.33;;
10550;SDS011;5324;50.684;3.862;2023-03-12T07:40:58;16.83;;;6.87;;
10550;SDS011;5324;50.684;3.862;2023-03-12T07:43:25;22.20;;;7.27;;
10550;SDS011;5324;50.684;3.862;2023-03-12T07:45:51;24.80;;;7.93;;
10550;SDS011;5324;50.684;3.862;2023-03-12T07:48:17;16.87;;;7.20;;
10550;SDS011;5324;50.684;3.862;2023-03-12T07:50:44;24.10;;;8.03;;
10550;SDS011;5324;50.684;3.862;2023-03-12T07:53:10;26.60;;;7.90;;
10550;SDS011;5324;50.684;3.862;2023-03-12T07:55:36;25.30;;;7.83;;
10550;SDS011;5324;50.684;3.862;2023-03-12T07:58:02;24.77;;;8.33;;
10550;SDS011;5324;50.684;3.862;2023-03-12T08:00:29;25.70;;;9.03;;
10550;SDS011;5324;50.684;3.862;2023-03-12T08:02:55;31.07;;;9.13;;
10550;SDS011;5324;50.684;3.862;2023-03-12T08:05:21;25.80;;;8.73;;
10550;SDS011;5324;50.684;3.862;2023-03-12T08:07:49;32.63;;;8.97;;
10550;SDS011;5324;50.684;3.862;2023-03-12T08:10:16;33.70;;;9.47;;
10550;SDS011;5324;50.684;3.862;2023-03-12T08:12:42;26.80;;;7.97;;
10550;SDS011;5324;50.684;3.862;2023-03-12T08:15:08;33.03;;;9.47;;
10550;SDS011;5324;50.684;3.862;2023-03-12T08:17:36;31.37;;;9.70;;
10550;SDS011;5324;50.684;3.862;2023-03-12T08:20:02;24.07;;;8.57;;
10550;SDS011;5324;50.684;3.862;2023-03-12T08:22:29;25.20;;;9.03;;
10550;SDS011;5324;50.684;3.862;2023-03-12T08:24:55;30.87;;;9.60;;
10550;SDS011;5324;50.684;3.862;2023-03-12T08:27:22;25.53;;;8.90;;
10550;SDS011;5324;50.684;3.862;2023-03-12T08:29:48;22.53;;;9.50;;
10550;SDS011;5324;50.684;3.862;2023-03-12T08:32:14;25.93;;;8.87;;
10550;SDS011;5324;50.684;3.862;2023-03-12T08:34:40;26.00;;;7.73;;
10550;SDS011;5324;50.684;3.862;2023-03-12T08:37:06;39.67;;;9.70;;
10550;SDS011;5324;50.684;3.862;2023-03-12T08:39:32;33.47;;;9.43;;
10550;SDS011;5324;50.684;3.862;2023-03-12T08:41:58;29.30;;;8.67;;
10550;SDS011;5324;50.684;3.862;2023-03-12T08:44:25;25.27;;;8.30;;
10550;SDS011;5324;50.684;3.862;2023-03-12T08:46:51;25.33;;;8.87;;
10550;SDS011;5324;50.684;3.862;2023-03-12T08:49:17;29.67;;;7.37;;
10550;SDS011;5324;50.684;3.862;2023-03-12T08:51:43;24.97;;;8.50;;
10550;SDS011;5324;50.684;3.862;2023-03-12T08:54:09;31.10;;;7.57;;
10550;SDS011;5324;50.684;3.862;2023-03-12T08:56:35;24.37;;;7.53;;
10550;SDS011;5324;50.684;3.862;2023-03-12T08:59:05;27.70;;;7.40;;
10550;SDS011;5324;50.684;3.862;2023-03-12T09:01:31;30.87;;;8.07;;
10550;SDS011;5324;50.684;3.862;2023-03-12T09:03:57;32.37;;;7.57;;
10550;SDS011;5324;50.684;3.862;2023-03-12T09:06:23;23.17;;;6.77;;
10550;SDS011;5324;50.684;3.862;2023-03-12T09:08:49;30.13;;;8.07;;
10550;SDS011;5324;50.684;3.862;2023-03-12T09:11:16;25.87;;;7.23;;
10550;SDS011;5324;50.684;3.862;2023-03-12T09:13:43;34.43;;;8.70;;
10550;SDS011;5324;50.684;3.862;2023-03-12T09:16:09;32.27;;;8.07;;
10550;SDS011;5324;50.684;3.862;2023-03-12T09:18:35;27.03;;;7.70;;
10550;SDS011;5324;50.684;3.862;2023-03-12T09:21:01;20.27;;;6.80;;
10550;SDS011;5324;50.684;3.862;2023-03-12T09:23:27;28.70;;;6.47;;
10550;SDS011;5324;50.684;3.862;2023-03-12T09:25:53;21.70;;;6.53;;
10550;SDS011;5324;50.684;3.862;2023-03-12T09:28:21;20.33;;;6.43;;
10550;SDS011;5324;50.684;3.862;2023-03-12T09:30:47;21.33;;;5.90;;
10550;SDS011;5324;50.684;3.862;2023-03-12T09:33:13;30.27;;;6.73;;
10550;SDS011;5324;50.684;3.862;2023-03-12T09:35:40;18.87;;;6.17;;
10550;SDS011;5324;50.684;3.862;2023-03-12T09:38:06;17.27;;;5.83;;
10550;SDS011;5324;50.684;3.862;2023-03-12T09:40:33;21.07;;;6.57;;
10550;SDS011;5324;50.684;3.862;2023-03-12T09:43:06;19.17;;;6.43;;
10550;SDS011;5324;50.684;3.862;2023-03-12T09:45:36;24.10;;;6.37;;
10550;SDS011;5324;50.684;3.862;2023-03-12T09:48:03;18.00;;;5.43;;
10550;SDS011;5324;50.684;3.862;2023-03-12T09:50:34;23.00;;;6.50;;
10550;SDS011;5324;50.684;3.862;2023-03-12T09:53:09;24.03;;;7.20;;
10550;SDS011;5324;50.684;3.862;2023-03-12T09:55:37;19.03;;;5.40;;
10550;SDS011;5324;50.684;3.862;2023-03-12T09:58:08;25.43;;;6.50;;
10550;SDS011;5324;50.684;3.862;2023-03-12T10:00:35;23.27;;;6.20;;
10550;SDS011;5324;50.684;3.862;2023-03-12T10:11:02;24.00;;;5.73;;
10550;SDS011;5324;50.684;3.862;2023-03-12T10:13:52;29.53;;;6.67;;
10550;SDS011;5324;50.684;3.862;2023-03-12T10:18:56;28.37;;;6.87;;
10550;SDS011;5324;50.684;3.862;2023-03-12T10:26:33;29.73;;;7.37;;
10550;SDS011;5324;50.684;3.862;2023-03-12T10:29:09;27.87;;;6.37;;
10550;SDS011;5324;50.684;3.862;2023-03-12T10:31:40;25.97;;;6.87;;
10550;SDS011;5324;50.684;3.862;2023-03-12T10:34:13;28.97;;;6.87;;
10550;SDS011;5324;50.684;3.862;2023-03-12T10:36:40;23.77;;;7.27;;
10550;SDS011;5324;50.684;3.862;2023-03-12T10:39:13;24.27;;;7.00;;
10550;SDS011;5324;50.684;3.862;2023-03-12T10:41:40;26.03;;;5.87;;
10550;SDS011;5324;50.684;3.862;2023-03-12T10:44:07;31.40;;;6.63;;
10550;SDS011;5324;50.684;3.862;2023-03-12T10:54:43;21.97;;;5.93;;
10550;SDS011;5324;50.684;3.862;2023-03-12T10:57:09;27.77;;;6.23;;
10550;SDS011;5324;50.684;3.862;2023-03-12T10:59:39;25.50;;;6.70;;
10550;SDS011;5324;50.684;3.862;2023-03-12T11:04:52;30.43;;;7.30;;
10550;SDS011;5324;50.684;3.862;2023-03-12T11:09:44;25.03;;;7.00;;
10550;SDS011;5324;50.684;3.862;2023-03-12T11:12:24;28.83;;;6.77;;
10550;SDS011;5324;50.684;3.862;2023-03-12T11:14:50;24.47;;;6.00;;
10550;SDS011;5324;50.684;3.862;2023-03-12T11:17:22;23.87;;;6.43;;
10550;SDS011;5324;50.684;3.862;2023-03-12T11:19:48;28.80;;;5.90;;
10550;SDS011;5324;50.684;3.862;2023-03-12T11:22:14;25.33;;;6.73;;
10550;SDS011;5324;50.684;3.862;2023-03-12T11:24:58;29.30;;;6.03;;
10550;SDS011;5324;50.684;3.862;2023-03-12T11:30:04;25.33;;;6.33;;
10550;SDS011;5324;50.684;3.862;2023-03-12T11:34:58;26.67;;;6.00;;
10550;SDS011;5324;50.684;3.862;2023-03-12T11:43:09;25.07;;;5.40;;
10550;SDS011;5324;50.684;3.862;2023-03-12T11:53:12;20.40;;;6.03;;
10550;SDS011;5324;50.684;3.862;2023-03-12T11:58:11;22.60;;;5.17;;
10550;SDS011;5324;50.684;3.862;2023-03-12T12:01:00;19.80;;;5.43;;
10550;SDS011;5324;50.684;3.862;2023-03-12T12:06:01;23.50;;;5.13;;
10550;SDS011;5324;50.684;3.862;2023-03-12T12:11:06;21.60;;;5.47;;
10550;SDS011;5324;50.684;3.862;2023-03-12T12:21:21;20.17;;;4.13;;
10550;SDS011;5324;50.684;3.862;2023-03-12T12:26:37;21.20;;;5.07;;
10550;SDS011;5324;50.684;3.862;2023-03-12T12:36:49;20.70;;;4.73;;
10550;SDS011;5324;50.684;3.862;2023-03-12T12:39:18;21.83;;;4.23;;
10550;SDS011;5324;50.684;3.862;2023-03-12T12:41:49;20.47;;;5.30;;
10550;SDS011;5324;50.684;3.862;2023-03-12T12:44:16;19.33;;;4.93;;
10550;SDS011;5324;50.684;3.862;2023-03-12T12:46:47;21.60;;;4.97;;
10550;SDS011;5324;50.684;3.862;2023-03-12T12:49:30;19.53;;;5.87;;
10550;SDS011;5324;50.684;3.862;2023-03-12T12:51:57;19.93;;;4.73;;
10550;SDS011;5324;50.684;3.862;2023-03-12T12:57:18;18.40;;;4.50;;
10550;SDS011;5324;50.684;3.862;2023-03-12T13:00:08;16.77;;;4.87;;
10550;SDS011;5324;50.684;3.862;2023-03-12T13:02:38;22.83;;;5.27;;
10550;SDS011;5324;50.684;3.862;2023-03-12T13:05:16;20.10;;;4.47;;
10550;SDS011;5324;50.684;3.862;2023-03-12T13:07:43;24.77;;;5.40;;
10550;SDS011;5324;50.684;3.862;2023-03-12T13:10:36;24.07;;;5.27;;
10550;SDS011;5324;50.684;3.862;2023-03-12T13:12:55;19.47;;;3.93;;
10550;SDS011;5324;50.684;3.862;2023-03-12T13:20:20;17.47;;;4.37;;
10550;SDS011;5324;50.684;3.862;2023-03-12T13:27:58;18.83;;;3.83;;
10550;SDS011;5324;50.684;3.862;2023-03-12T13:40:52;19.20;;;4.50;;
10550;SDS011;5324;50.684;3.862;2023-03-12T13:43:12;18.90;;;4.67;;
10550;SDS011;5324;50.684;3.862;2023-03-12T13:48:22;14.57;;;3.30;;
10550;SDS011;5324;50.684;3.862;2023-03-12T13:50:53;14.47;;;3.57;;
10550;SDS011;5324;50.684;3.862;2023-03-12T13:53:23;21.43;;;4.67;;
10550;SDS011;5324;50.684;3.862;2023-03-12T13:56:04;16.93;;;3.83;;
10550;SDS011;5324;50.684;3.862;2023-03-12T13:58:34;13.10;;;3.27;;
10550;SDS011;5324;50.684;3.862;2023-03-12T14:01:05;17.23;;;4.33;;
10550;SDS011;5324;50.684;3.862;2023-03-12T14:03:39;14.07;;;3.63;;
10550;SDS011;5324;50.684;3.862;2023-03-12T14:06:10;15.47;;;4.07;;
10550;SDS011;5324;50.684;3.862;2023-03-12T14:11:28;20.87;;;4.37;;
10550;SDS011;5324;50.684;3.862;2023-03-12T14:16:43;17.17;;;4.33;;
10550;SDS011;5324;50.684;3.862;2023-03-12T14:19:13;12.00;;;3.93;;
10550;SDS011;5324;50.684;3.862;2023-03-12T14:21:40;16.70;;;4.57;;
10550;SDS011;5324;50.684;3.862;2023-03-12T14:24:12;21.70;;;4.20;;
10550;SDS011;5324;50.684;3.862;2023-03-12T14:26:40;20.10;;;3.93;;
10550;SDS011;5324;50.684;3.862;2023-03-12T14:29:07;15.60;;;4.77;;
10550;SDS011;5324;50.684;3.862;2023-03-12T14:31:34;15.50;;;3.47;;
10550;SDS011;5324;50.684;3.862;2023-03-12T14:36:59;19.23;;;4.13;;
10550;SDS011;5324;50.684;3.862;2023-03-12T14:41:57;15.47;;;4.07;;
10550;SDS011;5324;50.684;3.862;2023-03-12T14:44:25;16.13;;;3.90;;
10550;SDS011;5324;50.684;3.862;2023-03-12T14:49:27;12.67;;;3.53;;
10550;SDS011;5324;50.684;3.862;2023-03-12T14:51:54;15.93;;;3.73;;
10550;SDS011;5324;50.684;3.862;2023-03-12T14:54:22;17.27;;;4.63;;
10550;SDS011;5324;50.684;3.862;2023-03-12T14:56:49;14.97;;;3.87;;
10550;SDS011;5324;50.684;3.862;2023-03-12T14:59:25;16.77;;;4.70;;
10550;SDS011;5324;50.684;3.862;2023-03-12T15:01:55;11.20;;;3.70;;
10550;SDS011;5324;50.684;3.862;2023-03-12T15:04:23;17.70;;;4.77;;
10550;SDS011;5324;50.684;3.862;2023-03-12T15:06:58;15.93;;;3.53;;
10550;SDS011;5324;50.684;3.862;2023-03-12T15:09:28;18.07;;;3.77;;
10550;SDS011;5324;50.684;3.862;2023-03-12T15:11:56;15.03;;;3.80;;
10550;SDS011;5324;50.684;3.862;2023-03-12T15:14:23;16.67;;;4.03;;
10550;SDS011;5324;50.684;3.862;2023-03-12T15:16:51;19.03;;;4.33;;
10550;SDS011;5324;50.684;3.862;2023-03-12T15:19:19;17.97;;;4.17;;
10550;SDS011;5324;50.684;3.862;2023-03-12T15:21:45;15.27;;;4.47;;
10550;SDS011;5324;50.684;3.862;2023-03-12T15:24:11;15.03;;;3.83;;
10550;SDS011;5324;50.684;3.862;2023-03-12T15:26:38;19.27;;;4.17;;
10550;SDS011;5324;50.684;3.862;2023-03-12T15:31:51;16.47;;;3.83;;
10550;SDS011;5324;50.684;3.862;2023-03-12T15:34:32;15.00;;;4.33;;
10550;SDS011;5324;50.684;3.862;2023-03-12T15:37:02;15.87;;;4.00;;
10550;SDS011;5324;50.684;3.862;2023-03-12T15:39:32;15.10;;;3.60;;
10550;SDS011;5324;50.684;3.862;2023-03-12T15:41:59;18.90;;;4.40;;
10550;SDS011;5324;50.684;3.862;2023-03-12T15:44:27;12.80;;;4.03;;
10550;SDS011;5324;50.684;3.862;2023-03-12T15:47:09;14.07;;;3.73;;
10550;SDS011;5324;50.684;3.862;2023-03-12T15:49:36;16.73;;;4.53;;
10550;SDS011;5324;50.684;3.862;2023-03-12T15:52:24;17.67;;;3.97;;
10550;SDS011;5324;50.684;3.862;2023-03-12T15:55:05;19.77;;;3.97;;
10550;SDS011;5324;50.684;3.862;2023-03-12T15:57:32;18.23;;;3.77;;
10550;SDS011;5324;50.684;3.862;2023-03-12T16:02:58;18.53;;;4.40;;
10550;SDS011;5324;50.684;3.862;2023-03-12T16:05:27;16.73;;;4.43;;
10550;SDS011;5324;50.684;3.862;2023-03-12T16:07:54;13.30;;;3.53;;
10550;SDS011;5324;50.684;3.862;2023-03-12T16:10:21;15.47;;;4.70;;
10550;SDS011;5324;50.684;3.862;2023-03-12T16:12:49;18.07;;;4.60;;
10550;SDS011;5324;50.684;3.862;2023-03-12T16:15:17;18.23;;;4.77;;
10550;SDS011;5324;50.684;3.862;2023-03-12T16:17:45;17.07;;;4.30;;
10550;SDS011;5324;50.684;3.862;2023-03-12T16:20:12;19.73;;;5.00;;
10550;SDS011;5324;50.684;3.862;2023-03-12T16:22:38;18.30;;;4.40;;
10550;SDS011;5324;50.684;3.862;2023-03-12T16:25:05;18.33;;;4.53;;
10550;SDS011;5324;50.684;3.862;2023-03-12T16:27:31;13.40;;;4.17;;
10550;SDS011;5324;50.684;3.862;2023-03-12T16:30:04;17.50;;;3.80;;
10550;SDS011;5324;50.684;3.862;2023-03-12T16:32:30;16.57;;;4.03;;
10550;SDS011;5324;50.684;3.862;2023-03-12T16:34:56;17.27;;;4.37;;
10550;SDS011;5324;50.684;3.862;2023-03-12T16:37:22;17.17;;;4.10;;
10550;SDS011;5324;50.684;3.862;2023-03-12T16:39:49;13.77;;;4.30;;
10550;SDS011;5324;50.684;3.862;2023-03-12T16:42:23;17.20;;;4.67;;
10550;SDS011;5324;50.684;3.862;2023-03-12T16:44:50;19.90;;;4.93;;
10550;SDS011;5324;50.684;3.862;2023-03-12T16:47:16;16.10;;;4.10;;
10550;SDS011;5324;50.684;3.862;2023-03-12T16:49:42;12.33;;;3.93;;
10550;SDS011;5324;50.684;3.862;2023-03-12T16:52:18;15.80;;;4.37;;
10550;SDS011;5324;50.684;3.862;2023-03-12T16:54:45;12.30;;;3.83;;
10550;SDS011;5324;50.684;3.862;2023-03-12T16:57:18;17.27;;;5.23;;